Time;durP1;ratioP1;P1;durP2;ratioP2;P2;SDS_P1;SDS_P2;PMS_P1;PMS_P2;Temp;Humidity;BMP_temperature;BMP_pressure;BME280_temperature;BME280_humidity;BME280_pressure;Samples;Min_cycle;Max_cycle;Signal;HPM_P1;HPM_P2
2022/04/28 00:00:37;;;;;;;25.67;10.63;;;;;;;6.99;72.35;100734.72;4155610;28;20269;-73
2022/04/28 00:03:04;;;;;;;27.70;11.10;;;;;;;6.88;73.15;100732.03;4176456;28;20264;-74
2022/04/28 00:05:31;;;;;;;23.10;11.10;;;;;;;6.80;74.55;100726.47;4174181;28;20226;-71
2022/04/28 00:07:57;;;;;;;23.17;10.50;;;;;;;6.82;74.54;100733.34;4166181;28;21468;-52
2022/04/28 00:10:24;;;;;;;27.77;10.47;;;;;;;6.84;75.74;100733.22;4174596;28;21627;-57
2022/04/28 00:12:51;;;;;;;25.43;10.40;;;;;;;6.87;74.53;100744.41;4170120;28;20644;-71
2022/04/28 00:15:17;;;;;;;23.10;9.70;;;;;;;6.80;74.52;100745.00;4170090;28;21275;-72
2022/04/28 00:17:44;;;;;;;19.23;9.57;;;;;;;6.76;74.29;100739.91;4175232;28;20936;-72
2022/04/28 00:20:11;;;;;;;20.20;8.97;;;;;;;6.69;74.40;100736.03;4175859;28;21859;-73
2022/04/28 00:22:38;;;;;;;21.30;9.87;;;;;;;6.69;73.58;100738.66;4164544;28;20237;-72
2022/04/28 00:25:05;;;;;;;23.53;9.20;;;;;;;6.68;74.32;100744.91;4171122;28;20238;-72
2022/04/28 00:27:33;;;;;;;23.00;8.80;;;;;;;6.56;74.60;100740.53;4170859;28;20242;-72
2022/04/28 00:29:59;;;;;;;21.43;9.00;;;;;;;6.66;74.26;100735.41;4177059;28;20296;-72
2022/04/28 00:32:26;;;;;;;22.83;9.07;;;;;;;6.66;74.15;100741.53;4174388;28;21192;-74
2022/04/28 00:34:53;;;;;;;19.87;8.63;;;;;;;6.67;73.74;100743.25;4176224;28;21959;-72
2022/04/28 00:37:20;;;;;;;19.97;8.70;;;;;;;6.60;73.92;100741.13;4175760;28;24134;-73
2022/04/28 00:39:46;;;;;;;17.93;9.07;;;;;;;6.51;74.42;100737.38;4177470;28;26673;-72
2022/04/28 00:42:14;;;;;;;22.60;8.87;;;;;;;6.52;74.24;100733.78;4171471;28;20591;-73
2022/04/28 00:44:41;;;;;;;25.63;8.73;;;;;;;6.46;74.90;100739.50;4179862;28;20228;-74
2022/04/28 00:47:08;;;;;;;18.27;8.90;;;;;;;6.50;74.48;100733.03;4199224;28;20233;-72
2022/04/28 00:52:22;;;;;;;16.77;8.97;;;;;;;6.49;74.52;100734.00;4185120;28;20232;-72
2022/04/28 00:54:51;;;;;;;21.27;8.93;;;;;;;6.33;74.53;100735.09;4172735;28;20237;-72
2022/04/28 00:57:18;;;;;;;17.80;8.93;;;;;;;6.30;75.49;100739.78;4170512;28;20259;-72
2022/04/28 00:59:45;;;;;;;19.67;8.37;;;;;;;6.36;74.77;100734.03;4180323;28;20233;-72
2022/04/28 01:02:12;;;;;;;18.47;8.43;;;;;;;6.37;75.17;100740.16;4178906;28;20404;-72
2022/04/28 01:04:39;;;;;;;17.03;8.03;;;;;;;6.36;74.35;100736.69;4167497;28;20239;-73
2022/04/28 01:07:06;;;;;;;15.47;8.00;;;;;;;6.44;74.11;100731.69;4174761;28;20722;-72
2022/04/28 01:09:36;;;;;;;18.53;8.30;;;;;;;6.47;73.91;100730.63;4164583;28;20308;-72
2022/04/28 01:12:14;;;;;;;19.47;8.13;;;;;;;6.36;74.00;100734.03;4182005;28;20228;-72
2022/04/28 01:14:45;;;;;;;17.57;7.90;;;;;;;6.33;73.86;100726.34;4169082;28;21305;-73
2022/04/28 01:17:12;;;;;;;16.03;8.23;;;;;;;6.22;74.48;100727.09;4173013;28;21585;-72
2022/04/28 01:19:39;;;;;;;19.70;8.27;;;;;;;6.22;74.52;100718.34;4180366;28;20348;-72
2022/04/28 01:22:07;;;;;;;22.27;8.17;;;;;;;6.13;74.81;100720.69;4182170;28;21109;-73
2022/04/28 01:24:34;;;;;;;19.53;8.23;;;;;;;6.20;73.89;100718.44;4197900;28;22266;-73
2022/04/28 01:27:02;;;;;;;22.87;8.70;;;;;;;6.22;74.01;100715.69;4191000;28;20241;-72
2022/04/28 01:29:32;;;;;;;24.63;8.23;;;;;;;6.13;73.51;100723.34;4193405;28;20380;-73
2022/04/28 01:31:59;;;;;;;21.97;8.83;;;;;;;6.00;74.87;100719.03;4171781;28;20718;-72
2022/04/28 01:34:25;;;;;;;24.07;9.37;;;;;;;5.98;74.86;100718.28;4199850;28;20438;-72
2022/04/28 01:36:52;;;;;;;20.43;8.03;;;;;;;5.97;75.16;100720.09;4187338;28;20502;-73
2022/04/28 01:39:19;;;;;;;22.80;8.20;;;;;;;5.97;75.00;100721.88;4204734;28;21028;-73
2022/04/28 01:41:49;;;;;;;16.60;7.77;;;;;;;5.90;75.00;100710.88;4192544;28;20278;-71
2022/04/28 01:44:16;;;;;;;24.27;9.30;;;;;;;5.77;75.52;100704.75;4204489;28;20232;-72
2022/04/28 01:46:43;;;;;;;20.87;9.23;;;;;;;5.61;76.54;100705.81;4199580;28;20288;-72
2022/04/28 01:49:11;;;;;;;23.37;9.10;;;;;;;5.52;77.08;100702.97;4176658;28;20245;-74
2022/04/28 01:57:08;;;;;;;20.47;8.67;;;;;;;5.36;79.27;100704.03;4170278;28;20333;-73
2022/04/28 01:59:35;;;;;;;17.33;7.73;;;;;;;5.35;79.23;100698.84;4192064;28;20233;-72
2022/04/28 02:02:01;;;;;;;23.97;8.67;;;;;;;5.34;79.62;100699.78;4202614;28;20295;-73
2022/04/28 02:04:28;;;;;;;21.03;8.23;;;;;;;5.40;79.11;100707.31;4187476;28;20233;-72
2022/04/28 02:06:58;;;;;;;23.17;8.10;;;;;;;5.41;78.58;100707.22;4190651;28;20336;-72
2022/04/28 02:09:25;;;;;;;19.40;8.27;;;;;;;5.40;78.03;100713.41;4187420;28;25560;-72
2022/04/28 02:11:51;;;;;;;17.03;7.87;;;;;;;5.44;77.58;100709.63;4186582;28;20255;-72
2022/04/28 02:14:18;;;;;;;15.77;7.60;;;;;;;5.49;77.72;100704.88;4197881;28;20262;-72
2022/04/28 02:16:45;;;;;;;16.47;7.87;;;;;;;5.50;77.22;100706.56;4193246;28;22256;-72
2022/04/28 02:19:11;;;;;;;17.17;7.80;;;;;;;5.41;77.58;100712.47;4195697;28;20254;-71
2022/04/28 02:21:38;;;;;;;18.50;7.30;;;;;;;5.47;77.66;100714.69;4195903;28;20295;-73
2022/04/28 02:24:05;;;;;;;15.90;7.37;;;;;;;5.48;77.17;100705.84;4195684;28;22581;-72
2022/04/28 02:26:31;;;;;;;20.37;8.13;;;;;;;5.51;77.06;100710.06;4197464;28;20411;-72
2022/04/28 02:28:58;;;;;;;13.63;6.90;;;;;;;5.43;76.68;100702.66;4186895;28;20248;-72
2022/04/28 02:31:24;;;;;;;19.33;7.40;;;;;;;5.31;77.73;100700.00;4190946;28;20233;-73
2022/04/28 02:33:51;;;;;;;18.40;7.40;;;;;;;5.32;77.76;100704.34;4188986;28;22146;-72
2022/04/28 02:36:17;;;;;;;23.33;8.03;;;;;;;5.13;79.49;100702.97;4192670;28;20233;-73
2022/04/28 02:38:44;;;;;;;16.27;7.37;;;;;;;5.30;78.03;100696.53;4187480;28;21051;-74
2022/04/28 02:41:11;;;;;;;20.67;8.63;;;;;;;5.11;79.68;100701.38;4198399;28;20957;-72
2022/04/28 02:43:37;;;;;;;19.43;8.33;;;;;;;5.10;79.74;100702.31;4203601;28;23763;-72
2022/04/28 02:46:04;;;;;;;19.03;8.03;;;;;;;5.18;78.95;100705.28;4184072;28;20426;-72
2022/04/28 02:48:31;;;;;;;20.63;7.80;;;;;;;5.22;78.10;100704.09;4186921;28;20263;-74
2022/04/28 02:50:58;;;;;;;15.73;8.17;;;;;;;5.08;79.04;100692.72;4197614;28;22299;-74
2022/04/28 02:53:24;;;;;;;15.60;7.80;;;;;;;5.13;79.14;100699.44;4197861;28;20310;-72
2022/04/28 02:55:51;;;;;;;15.53;7.53;;;;;;;5.02;79.24;100695.75;4200967;28;20304;-73
2022/04/28 02:58:18;;;;;;;17.63;7.30;;;;;;;4.95;79.69;100691.84;4197236;28;20246;-73
2022/04/28 03:00:44;;;;;;;14.47;7.23;;;;;;;4.99;79.67;100698.59;4188418;28;20503;-74
2022/04/28 03:03:11;;;;;;;18.83;8.37;;;;;;;5.05;79.28;100695.53;4190225;28;21769;-71
2022/04/28 03:11:15;;;;;;;17.77;8.20;;;;;;;4.89;79.64;100708.06;4183705;28;20232;-72
2022/04/28 03:13:41;;;;;;;20.83;7.83;;;;;;;4.95;79.33;100718.22;4198867;28;20232;-73
2022/04/28 03:16:08;;;;;;;18.67;8.27;;;;;;;4.79;80.84;100717.53;4210664;28;20382;-72
2022/04/28 03:18:35;;;;;;;17.23;8.03;;;;;;;4.71;80.93;100725.97;4201243;28;20248;-72
2022/04/28 03:21:01;;;;;;;18.90;7.87;;;;;;;4.79;80.19;100722.81;4213857;28;20294;-72
2022/04/28 03:23:28;;;;;;;18.57;8.10;;;;;;;4.83;79.77;100719.03;4207227;28;20284;-72
2022/04/28 03:25:56;;;;;;;18.33;8.17;;;;;;;4.80;80.19;100719.22;4207427;28;20238;-72
2022/04/28 03:28:23;;;;;;;20.23;7.33;;;;;;;4.84;79.48;100720.72;4222769;28;20228;-73
2022/04/28 03:30:49;;;;;;;23.80;8.03;;;;;;;4.94;79.60;100719.19;4230344;28;20238;-72
2022/04/28 03:33:17;;;;;;;17.53;7.60;;;;;;;4.89;79.33;100721.25;4196233;28;20442;-73
2022/04/28 03:35:44;;;;;;;16.17;7.03;;;;;;;4.87;79.14;100725.81;4305380;28;20232;-71
2022/04/28 03:38:14;;;;;;;21.37;7.93;;;;;;;4.93;78.81;100725.38;4193450;28;20247;-72
2022/04/28 03:40:41;;;;;;;19.13;7.53;;;;;;;4.94;79.25;100721.81;4215456;28;23719;-74
2022/04/28 03:43:09;;;;;;;16.60;8.13;;;;;;;5.01;78.82;100727.50;4207220;28;20240;-72
2022/04/28 03:45:37;;;;;;;16.77;6.80;;;;;;;5.05;78.37;100729.81;4206529;28;20240;-73
2022/04/28 03:48:04;;;;;;;16.27;7.43;;;;;;;4.99;78.15;100732.91;4223523;28;20442;-73
2022/04/28 03:50:31;;;;;;;18.77;6.97;;;;;;;5.05;77.77;100724.56;4203646;28;20264;-73
2022/04/28 03:52:58;;;;;;;15.10;6.73;;;;;;;5.14;76.75;100732.81;4193885;28;21876;-73
2022/04/28 03:55:24;;;;;;;14.27;6.10;;;;;;;5.30;75.41;100738.75;4196913;28;20965;-75
2022/04/28 03:57:51;;;;;;;18.40;6.97;;;;;;;5.39;74.85;100732.84;4195248;28;20239;-72
2022/04/28 04:00:19;;;;;;;17.00;6.90;;;;;;;5.44;73.78;100730.75;4192792;28;20311;-72
2022/04/28 04:02:47;;;;;;;16.80;7.20;;;;;;;5.43;74.43;100744.03;4183979;28;22716;-73
2022/04/28 04:05:14;;;;;;;21.30;6.43;;;;;;;5.49;73.67;100739.19;4186199;28;23034;-73
2022/04/28 04:07:42;;;;;;;20.83;6.60;;;;;;;5.52;73.72;100746.03;4209548;28;22015;-74
2022/04/28 04:10:10;;;;;;;15.83;6.57;;;;;;;5.65;72.36;100743.41;4197272;28;20238;-73
2022/04/28 04:12:37;;;;;;;13.90;6.57;;;;;;;5.75;72.48;100733.91;4195273;28;20935;-73
2022/04/28 04:15:05;;;;;;;12.83;6.33;;;;;;;5.75;71.68;100733.91;4217037;28;20241;-73
2022/04/28 04:17:45;;;;;;;18.03;6.73;;;;;;;5.76;71.39;100740.88;4180980;28;20237;-73
2022/04/28 04:20:12;;;;;;;19.07;6.50;;;;;;;5.87;70.83;100748.88;4200678;28;20233;-73
2022/04/28 04:22:42;;;;;;;10.80;5.90;;;;;;;5.86;70.76;100755.13;4190611;28;20228;-75
2022/04/28 04:25:09;;;;;;;16.33;5.93;;;;;;;6.00;70.19;100756.84;4228169;28;20229;-73
2022/04/28 04:27:36;;;;;;;13.93;6.10;;;;;;;6.07;69.93;100751.97;4193015;28;22368;-72
2022/04/28 04:32:17;;;;;;;16.23;6.20;;;;;;;6.10;70.08;100764.97;4213374;28;20289;-72
2022/04/28 04:32:49;;;;;;;14.57;5.77;;;;;;;6.11;69.44;100761.34;4204535;28;22211;-74
2022/04/28 04:35:16;;;;;;;15.87;6.50;;;;;;;6.12;68.88;100768.34;4193451;28;20236;-73
2022/04/28 04:37:43;;;;;;;14.90;5.93;;;;;;;6.13;69.87;100764.75;4195713;28;20239;-73
2022/04/28 04:40:13;;;;;;;15.30;5.83;;;;;;;6.18;69.00;100764.41;4233006;28;20283;-72
2022/04/28 04:42:40;;;;;;;16.77;6.47;;;;;;;6.27;69.72;100767.25;4176808;28;20264;-73
2022/04/28 04:45:08;;;;;;;13.57;5.90;;;;;;;6.39;68.51;100765.56;4186479;28;20236;-71
2022/04/28 04:47:35;;;;;;;18.53;6.50;;;;;;;6.52;67.97;100766.34;4194590;28;21222;-74
2022/04/28 04:50:03;;;;;;;13.43;6.10;;;;;;;6.55;67.55;100771.44;4233507;28;20981;-73
2022/04/28 04:52:30;;;;;;;12.50;5.73;;;;;;;6.62;67.91;100773.63;4195245;28;21714;-72
2022/04/28 04:54:57;;;;;;;15.27;5.77;;;;;;;6.73;66.61;100768.38;4208105;28;20237;-74
2022/04/28 04:57:24;;;;;;;14.30;6.27;;;;;;;6.83;65.63;100774.69;4191556;28;21766;-72
2022/04/28 04:59:50;;;;;;;11.87;5.73;;;;;;;6.82;66.47;100773.00;4212390;28;20789;-72
2022/04/28 05:02:17;;;;;;;16.30;5.83;;;;;;;6.91;65.67;100767.03;4188311;28;20233;-73
2022/04/28 05:04:44;;;;;;;15.80;6.37;;;;;;;6.95;65.43;100765.00;4204289;28;21947;-73
2022/04/28 05:07:10;;;;;;;13.33;5.87;;;;;;;7.10;64.95;100768.34;4175065;28;21417;-72
2022/04/28 05:09:37;;;;;;;17.23;6.43;;;;;;;7.09;64.97;100767.47;4186196;28;20236;-73
2022/04/28 05:12:05;;;;;;;16.47;6.13;;;;;;;7.15;64.17;100768.81;4206360;28;20233;-73
2022/04/28 05:14:38;;;;;;;16.73;5.97;;;;;;;7.26;64.16;100768.00;4181671;28;20244;-73
2022/04/28 05:17:05;;;;;;;15.70;6.37;;;;;;;7.30;64.52;100769.47;4201480;28;20261;-73
2022/04/28 05:19:32;;;;;;;20.10;6.63;;;;;;;7.37;64.76;100770.69;4237475;28;20233;-74
2022/04/28 05:21:58;;;;;;;17.63;5.97;;;;;;;7.43;64.42;100775.53;4202346;28;20304;-73
2022/04/28 05:24:25;;;;;;;17.63;6.77;;;;;;;7.50;64.55;100774.09;4188001;28;20242;-73
2022/04/28 05:26:51;;;;;;;13.87;6.47;;;;;;;7.80;63.78;100780.66;4191949;28;20271;-71
2022/04/28 05:29:18;;;;;;;18.30;6.53;;;;;;;8.02;62.96;100785.13;4212192;28;20291;-71
2022/04/28 05:31:44;;;;;;;13.87;6.03;;;;;;;8.30;62.84;100785.63;4196229;28;21191;-72
2022/04/28 05:34:11;;;;;;;13.77;5.53;;;;;;;8.60;61.58;100785.00;4214075;28;20242;-72
2022/04/28 05:36:39;;;;;;;16.10;5.87;;;;;;;8.78;59.05;100799.44;4181510;28;20241;-71
2022/04/28 05:39:06;;;;;;;13.23;5.43;;;;;;;9.10;58.99;100801.25;4171890;28;22160;-72
2022/04/28 05:41:34;;;;;;;11.67;6.53;;;;;;;9.35;57.61;100808.03;4180468;28;20446;-71
2022/04/28 05:46:46;;;;;;;14.33;6.50;;;;;;;9.63;56.56;100809.22;4189004;28;20910;-72
2022/04/28 05:49:12;;;;;;;14.77;6.30;;;;;;;9.69;55.12;100814.03;4187948;28;20246;-71
2022/04/28 05:51:40;;;;;;;14.83;6.43;;;;;;;9.47;55.40;100811.47;4174248;28;20399;-74
2022/04/28 05:54:07;;;;;;;17.20;6.33;;;;;;;9.37;56.53;100818.56;4178456;28;23139;-73
2022/04/28 05:56:33;;;;;;;14.67;5.77;;;;;;;9.66;55.88;100821.41;4180061;28;20321;-75
2022/04/28 05:59:01;;;;;;;13.77;5.60;;;;;;;10.01;54.43;100826.38;4174467;28;21146;-74
2022/04/28 06:01:28;;;;;;;12.23;5.67;;;;;;;9.97;54.84;100824.09;4176540;28;20252;-75
2022/04/28 06:03:58;;;;;;;14.83;6.03;;;;;;;10.19;53.83;100820.47;4182939;28;21444;-74
2022/04/28 06:06:26;;;;;;;17.80;5.90;;;;;;;10.33;52.07;100831.59;4175346;28;20426;-72
2022/04/28 06:08:53;;;;;;;11.53;5.60;;;;;;;10.48;52.48;100841.88;4176001;28;21031;-74
2022/04/28 06:11:20;;;;;;;16.40;6.57;;;;;;;11.20;51.08;100840.78;4235175;28;20238;-72
2022/04/28 06:13:46;;;;;;;18.60;6.53;;;;;;;11.75;48.96;100846.41;4226137;28;20248;-73
2022/04/28 06:16:13;;;;;;;16.17;5.40;;;;;;;12.39;47.26;100849.34;4232888;28;20657;-71
2022/04/28 06:18:40;;;;;;;16.90;6.10;;;;;;;12.08;47.40;100848.72;4290040;28;20289;-70
2022/04/28 06:21:07;;;;;;;16.53;6.10;;;;;;;12.16;48.37;100844.34;4223326;28;25385;-70
2022/04/28 06:23:33;;;;;;;25.30;6.80;;;;;;;12.16;48.00;100855.03;4272935;28;20497;-71
2022/04/28 06:26:01;;;;;;;24.67;6.90;;;;;;;12.20;48.50;100850.25;4303738;28;20255;-68
2022/04/28 06:28:28;;;;;;;29.33;7.33;;;;;;;12.12;49.64;100856.28;4203030;28;20245;-69
2022/04/28 06:30:58;;;;;;;44.10;8.50;;;;;;;11.67;49.51;100851.59;4202694;28;21790;-69
2022/04/28 06:33:25;;;;;;;37.17;8.03;;;;;;;11.46;50.72;100848.22;4282422;28;20408;-74
2022/04/28 06:35:52;;;;;;;24.33;7.13;;;;;;;11.38;50.97;100847.09;4345317;28;20611;-70
2022/04/28 06:38:18;;;;;;;28.17;7.60;;;;;;;11.60;50.81;100859.28;4245428;28;22008;-69
2022/04/28 06:40:46;;;;;;;23.13;6.87;;;;;;;11.54;50.66;100864.34;4245948;28;20231;-69
2022/04/28 06:43:13;;;;;;;25.43;6.63;;;;;;;11.38;51.33;100855.09;4229285;28;20221;-68
2022/04/28 06:46:11;;;;;;;20.53;6.10;;;;;;;11.24;52.14;100854.66;4226100;28;20293;-67
2022/04/28 06:48:27;;;;;;;13.00;6.17;;;;;;;11.14;52.38;100857.31;4202467;28;20235;-71
2022/04/28 06:50:53;;;;;;;16.43;6.07;;;;;;;11.04;52.39;100856.47;4199203;28;20254;-68
2022/04/28 06:53:22;;;;;;;14.17;5.77;;;;;;;10.92;52.57;100851.25;4256272;28;21070;-68
2022/04/28 06:55:48;;;;;;;19.23;6.43;;;;;;;10.81;53.18;100855.84;4263079;28;20237;-71
2022/04/28 06:58:15;;;;;;;18.50;6.07;;;;;;;10.63;53.06;100847.66;4251011;28;20568;-67
2022/04/28 07:00:43;;;;;;;15.63;5.80;;;;;;;10.26;54.68;100851.69;4246132;28;22018;-72
2022/04/28 07:03:11;;;;;;;22.90;6.80;;;;;;;10.10;56.09;100856.66;4264542;28;20336;-71
2022/04/28 07:05:39;;;;;;;12.97;5.77;;;;;;;10.21;56.44;100851.25;4333638;28;22199;-67
2022/04/28 07:08:06;;;;;;;15.30;5.50;;;;;;;9.86;56.32;100846.31;4287917;28;20343;-67
2022/04/28 07:10:34;;;;;;;14.90;5.27;;;;;;;9.59;57.68;100847.66;4273762;28;22180;-69
2022/04/28 07:13:02;;;;;;;16.07;5.87;;;;;;;9.66;57.33;100843.50;4286412;28;20237;-66
2022/04/28 07:15:28;;;;;;;13.87;5.80;;;;;;;9.91;56.32;100852.06;4245442;28;20366;-71
2022/04/28 07:17:58;;;;;;;12.43;6.00;;;;;;;10.06;56.62;100856.06;4243508;28;20244;-69
2022/04/28 07:20:25;;;;;;;16.13;6.23;;;;;;;10.05;55.77;100854.38;4211804;28;21659;-67
2022/04/28 07:22:53;;;;;;;13.17;5.83;;;;;;;10.03;54.94;100855.50;4255814;28;22280;-68
2022/04/28 07:25:20;;;;;;;11.07;5.30;;;;;;;9.95;54.85;100853.50;4254714;28;21186;-69
2022/04/28 07:27:47;;;;;;;13.53;5.50;;;;;;;9.77;55.68;100855.91;4257306;28;20345;-67
2022/04/28 07:30:14;;;;;;;16.13;5.83;;;;;;;9.72;55.75;100856.28;4229333;28;20337;-69
2022/04/28 07:32:42;;;;;;;29.90;6.67;;;;;;;9.91;55.72;100862.69;4262480;28;23527;-71
2022/04/28 07:35:08;;;;;;;20.60;6.30;;;;;;;10.11;55.01;100858.34;4207410;28;21103;-70
2022/04/28 07:37:35;;;;;;;40.50;7.27;;;;;;;10.01;55.07;100858.28;4185431;28;25815;-69
2022/04/28 07:40:08;;;;;;;37.87;7.43;;;;;;;9.98;54.61;100857.72;4299165;28;23096;-71
2022/04/28 07:42:35;;;;;;;28.93;6.87;;;;;;;9.93;55.75;100855.44;4193489;28;20289;-70
2022/04/28 07:45:05;;;;;;;42.97;9.63;;;;;;;10.24;55.50;100863.44;4214588;28;20232;-68
2022/04/28 07:47:33;;;;;;;35.57;9.17;;;;;;;10.47;54.78;100869.47;4222229;28;26008;-71
2022/04/28 07:50:00;;;;;;;31.33;6.23;;;;;;;10.66;52.82;100868.72;4267511;28;20290;-69
2022/04/28 07:52:27;;;;;;;31.83;6.43;;;;;;;10.75;52.54;100873.22;4185027;28;21867;-69
2022/04/28 07:54:54;;;;;;;25.93;7.23;;;;;;;10.90;52.31;100877.16;4215198;28;20250;-69
2022/04/28 07:57:23;;;;;;;24.43;6.20;;;;;;;10.64;51.69;100876.81;4261129;28;20230;-68
2022/04/28 07:59:51;;;;;;;17.10;5.03;;;;;;;10.93;51.34;100876.06;4253179;28;20271;-68
2022/04/28 08:02:18;;;;;;;12.57;5.60;;;;;;;11.16;50.93;100882.00;4273726;28;22260;-68
2022/04/28 08:04:45;;;;;;;14.13;5.50;;;;;;;10.86;50.82;100881.06;4229317;28;20401;-67
2022/04/28 08:07:12;;;;;;;10.40;5.33;;;;;;;10.84;51.61;100883.06;4216858;28;22079;-68
2022/04/28 08:09:38;;;;;;;10.90;4.90;;;;;;;11.17;50.83;100886.38;4241057;28;20349;-70
2022/04/28 08:12:06;;;;;;;16.90;5.03;;;;;;;11.41;49.86;100875.31;4206854;28;23494;-67
2022/04/28 08:14:34;;;;;;;10.47;5.17;;;;;;;11.31;49.54;100882.44;4201273;28;21029;-68
2022/04/28 08:17:01;;;;;;;17.70;5.20;;;;;;;11.72;49.44;100891.97;4211428;28;20235;-68
2022/04/28 08:19:28;;;;;;;15.40;5.53;;;;;;;12.00;47.77;100887.63;4233529;28;20233;-68
2022/04/28 08:21:54;;;;;;;20.27;5.40;;;;;;;12.25;47.39;100890.69;4262388;28;20399;-68
2022/04/28 08:24:21;;;;;;;17.17;5.20;;;;;;;12.40;47.44;100891.88;4237875;28;20244;-67
2022/04/28 08:26:48;;;;;;;14.10;5.17;;;;;;;12.53;46.13;100888.91;4223332;28;22234;-68
2022/04/28 08:29:15;;;;;;;20.23;5.90;;;;;;;12.40;46.14;100891.03;4230187;28;20697;-69
2022/04/28 08:31:45;;;;;;;16.47;5.43;;;;;;;12.55;46.71;100891.41;4232541;28;20432;-66
2022/04/28 08:34:13;;;;;;;15.23;4.80;;;;;;;13.01;46.36;100897.66;4200047;28;20234;-69
2022/04/28 08:36:44;;;;;;;12.13;4.77;;;;;;;13.33;44.54;100902.56;4192591;28;20420;-71
2022/04/28 08:39:11;;;;;;;15.07;5.33;;;;;;;13.86;44.36;100899.03;4214187;28;21227;-70
2022/04/28 08:41:49;;;;;;;11.03;4.73;;;;;;;13.90;42.79;100905.72;4223212;28;20287;-73
2022/04/28 08:44:26;;;;;;;14.20;4.83;;;;;;;13.82;42.30;100908.34;4237946;28;20228;-70
2022/04/28 08:46:54;;;;;;;14.13;4.83;;;;;;;14.20;43.20;100905.47;4200649;28;20245;-70
2022/04/28 08:49:29;;;;;;;16.53;5.07;;;;;;;14.71;41.74;100903.78;4279459;28;20229;-70
2022/04/28 08:51:58;;;;;;;13.40;4.83;;;;;;;15.02;40.01;100906.75;4256620;28;20321;-70
2022/04/28 08:54:28;;;;;;;10.53;4.27;;;;;;;14.88;39.54;100915.41;4248429;28;20247;-70
2022/04/28 08:56:57;;;;;;;14.97;5.17;;;;;;;15.25;39.70;100906.16;4231433;28;20302;-70
2022/04/28 08:59:25;;;;;;;13.47;5.03;;;;;;;15.26;39.11;100905.97;4205298;28;20240;-70
2022/04/28 09:01:51;;;;;;;11.73;4.60;;;;;;;15.06;38.77;100908.09;4195189;28;20226;-75
2022/04/28 09:04:18;;;;;;;16.63;4.73;;;;;;;15.05;39.38;100902.91;4204789;28;22345;-79
2022/04/28 09:06:52;;;;;;;11.07;4.90;;;;;;;14.76;40.49;100899.59;4208894;28;20233;-69
2022/04/28 09:09:19;;;;;;;11.13;4.60;;;;;;;15.30;39.12;100901.97;4192330;28;20673;-68
2022/04/28 09:11:47;;;;;;;13.20;4.80;;;;;;;15.48;38.68;100901.00;4183478;28;20237;-70
2022/04/28 09:14:20;;;;;;;13.13;4.13;;;;;;;15.54;38.94;100901.16;4187123;28;21242;-69
2022/04/28 09:16:48;;;;;;;12.07;4.63;;;;;;;15.06;39.01;100902.75;4174856;28;20313;-71
2022/04/28 09:19:25;;;;;;;13.17;4.47;;;;;;;15.16;39.23;100898.06;4218554;28;20230;-69
2022/04/28 09:21:54;;;;;;;11.93;4.30;;;;;;;15.07;39.52;100899.03;4177774;28;21797;-69
2022/04/28 09:24:24;;;;;;;8.77;4.13;;;;;;;15.32;39.58;100908.00;4182326;28;21008;-71
2022/04/28 09:26:54;;;;;;;11.93;4.63;;;;;;;15.49;38.43;100913.41;4206292;28;22486;-68
2022/04/28 09:29:29;;;;;;;17.87;4.70;;;;;;;15.43;38.50;100909.53;4179379;28;20244;-70
2022/04/28 09:31:56;;;;;;;12.37;4.27;;;;;;;15.30;39.66;100909.16;4224447;28;20411;-69
2022/04/28 09:34:52;;;;;;;8.83;4.97;;;;;;;15.88;39.12;100902.91;4220284;28;20419;-68
2022/04/28 09:37:21;;;;;;;17.07;5.47;;;;;;;16.04;37.71;100913.63;4204756;28;20281;-71
2022/04/28 09:42:43;;;;;;;10.73;4.07;;;;;;;15.99;37.63;100907.06;4207391;28;20256;-69
2022/04/28 09:45:12;;;;;;;11.20;4.70;;;;;;;15.55;38.38;100904.69;4193275;28;20305;-68
2022/04/28 09:47:38;;;;;;;8.80;4.47;;;;;;;14.95;39.59;100905.72;4217048;28;20434;-68
2022/04/28 09:50:13;;;;;;;9.13;4.53;;;;;;;15.07;40.21;100893.69;4266557;28;20234;-69
2022/04/28 09:52:42;;;;;;;9.43;4.80;;;;;;;15.32;38.36;100899.13;4211602;28;25671;-69
2022/04/28 09:55:09;;;;;;;7.90;4.43;;;;;;;15.55;38.53;100892.13;4187615;28;21634;-68
2022/04/28 09:57:36;;;;;;;7.87;3.77;;;;;;;15.87;40.45;100895.84;4202917;28;23100;-70
2022/04/28 10:00:03;;;;;;;17.00;6.40;;;;;;;16.00;39.67;100901.53;4206671;28;20515;-69
2022/04/28 10:02:30;;;;;;;11.80;5.63;;;;;;;16.53;38.12;100901.09;4214862;28;20311;-69
2022/04/28 10:05:02;;;;;;;11.87;4.20;;;;;;;16.41;40.21;100901.50;4210699;28;20244;-69
2022/04/28 10:07:31;;;;;;;12.37;4.27;;;;;;;16.31;36.84;100902.66;4203795;28;20942;-70
2022/04/28 10:09:57;;;;;;;8.30;4.43;;;;;;;16.33;37.28;100901.50;4206139;28;20237;-69
2022/04/28 10:12:25;;;;;;;10.27;4.10;;;;;;;15.72;39.17;100889.47;4189198;28;20241;-69
2022/04/28 10:14:54;;;;;;;13.47;4.10;;;;;;;15.58;38.20;100891.78;4212989;28;21592;-69
2022/04/28 10:17:41;;;;;;;7.83;4.37;;;;;;;15.88;36.98;100886.78;4189150;28;20356;-70
2022/04/28 10:20:11;;;;;;;11.27;4.30;;;;;;;16.00;36.95;100889.97;4215192;28;20383;-70
2022/04/28 10:23:01;;;;;;;8.10;4.17;;;;;;;15.97;35.73;100891.16;4229953;28;20920;-69
2022/04/28 10:34:27;;;;;;;10.37;3.70;;;;;;;15.92;37.89;100888.13;4206131;28;20318;-69
2022/04/28 10:37:01;;;;;;;11.50;5.07;;;;;;;15.76;37.42;100891.66;4184744;28;20233;-69
2022/04/28 10:39:58;;;;;;;10.30;4.27;;;;;;;15.75;37.23;100891.81;4203865;28;20304;-69
2022/04/28 10:42:25;;;;;;;10.07;4.30;;;;;;;15.68;37.17;100885.41;4200683;28;20315;-70
2022/04/28 10:44:54;;;;;;;7.93;3.83;;;;;;;15.26;37.44;100892.56;4190642;28;20299;-69
2022/04/28 10:47:28;;;;;;;27.33;9.23;;;;;;;15.36;38.93;100885.22;4219007;28;22330;-69
2022/04/28 10:49:56;;;;;;;8.97;4.60;;;;;;;15.16;38.46;100883.84;4191697;28;20543;-70
2022/04/28 10:52:25;;;;;;;5.63;3.70;;;;;;;15.55;38.19;100881.38;4228094;28;20235;-69
2022/04/28 10:54:53;;;;;;;9.57;4.10;;;;;;;15.69;37.64;100881.75;4229443;28;20402;-69
2022/04/28 10:57:37;;;;;;;9.57;4.30;;;;;;;15.89;37.51;100887.63;4181053;28;20656;-69
2022/04/28 11:00:05;;;;;;;54.73;13.83;;;;;;;15.81;38.27;100883.09;4185784;28;20238;-70
2022/04/28 11:02:34;;;;;;;13.07;4.53;;;;;;;15.93;37.99;100892.47;4177950;28;21821;-68
2022/04/28 11:05:22;;;;;;;10.70;3.67;;;;;;;15.52;38.04;100887.09;4235871;28;20238;-68
2022/04/28 11:07:53;;;;;;;8.73;4.03;;;;;;;15.75;38.25;100883.75;4218156;28;20229;-67
2022/04/28 11:10:22;;;;;;;9.20;4.23;;;;;;;15.93;38.10;100889.81;4219953;28;21260;-68
2022/04/28 11:12:50;;;;;;;12.13;5.37;;;;;;;16.20;37.12;100890.44;4187988;28;20274;-66
2022/04/28 11:15:19;;;;;;;8.70;4.30;;;;;;;16.03;36.93;100895.81;4209991;28;21046;-67
2022/04/28 11:17:46;;;;;;;8.67;4.50;;;;;;;15.99;36.32;100883.78;4194205;28;20319;-68
2022/04/28 11:20:15;;;;;;;6.47;4.00;;;;;;;16.16;36.16;100886.44;4194444;28;20229;-68
2022/04/28 11:22:42;;;;;;;7.87;3.97;;;;;;;16.36;35.57;100893.09;4180204;28;20240;-68
2022/04/28 11:25:20;;;;;;;8.47;4.40;;;;;;;16.00;35.81;100896.16;4189237;28;22076;-67
2022/04/28 11:27:50;;;;;;;6.30;3.80;;;;;;;15.96;36.55;100884.09;4208646;28;20256;-65
2022/04/28 11:30:21;;;;;;;7.87;4.37;;;;;;;15.71;37.49;100883.28;4235561;28;25531;-65
2022/04/28 11:32:51;;;;;;;7.83;4.20;;;;;;;16.00;37.21;100890.81;4188309;28;20241;-66
2022/04/28 11:35:22;;;;;;;13.03;4.10;;;;;;;15.94;36.93;100890.63;4175027;28;21752;-65
2022/04/28 11:37:58;;;;;;;8.70;4.07;;;;;;;15.97;36.91;100891.16;4169275;28;21061;-66
2022/04/28 11:40:25;;;;;;;7.93;3.90;;;;;;;16.17;35.49;100885.41;4206940;28;20250;-67
2022/04/28 11:42:59;;;;;;;8.77;4.10;;;;;;;16.12;35.90;100893.13;4211943;28;20293;-67
2022/04/28 11:45:29;;;;;;;11.93;4.57;;;;;;;16.02;35.93;100887.97;4190701;28;20234;-69
2022/04/28 11:48:00;;;;;;;8.33;4.23;;;;;;;15.97;35.16;100885.78;4182069;28;20243;-65
2022/04/28 11:50:30;;;;;;;8.03;4.20;;;;;;;16.29;35.00;100883.19;4193542;28;20238;-66
2022/04/28 11:53:04;;;;;;;8.30;3.63;;;;;;;16.38;36.14;100874.94;4201538;28;20421;-67
2022/04/28 11:55:38;;;;;;;8.00;4.30;;;;;;;16.60;35.36;100885.97;4197754;28;20346;-67